createdAt,value
2023-03-23T15:59:13.978Z,2.50
2023-03-23T16:01:44.993Z,2.30
2023-03-23T16:04:16.700Z,2.38
2023-03-23T16:06:46.721Z,2.33
2023-03-23T16:09:17.116Z,2.00
2023-03-23T16:11:45.573Z,1.83
2023-03-23T16:14:14.432Z,2.85
2023-03-23T16:16:50.293Z,2.53
2023-03-23T16:19:20.929Z,2.03
2023-03-23T16:21:50.766Z,2.13
2023-03-23T16:24:18.993Z,1.90
2023-03-23T16:26:47.323Z,2.38
2023-03-23T16:29:29.049Z,2.22
2023-03-23T16:32:06.819Z,2.30
2023-03-23T16:34:35.728Z,1.80
2023-03-23T16:37:06.910Z,1.60
2023-03-23T16:39:35.245Z,1.52
2023-03-23T16:42:03.527Z,1.35
2023-03-23T16:44:31.780Z,1.70
2023-03-23T16:47:00.323Z,1.83
2023-03-23T16:49:28.477Z,1.40
2023-03-23T16:51:56.701Z,1.77
2023-03-23T16:54:26.524Z,1.70
2023-03-23T16:56:54.706Z,1.70
2023-03-23T16:59:22.941Z,1.95
2023-03-23T17:01:51.997Z,1.92
2023-03-23T17:04:20.343Z,2.00
2023-03-23T17:06:49.152Z,2.35
2023-03-23T17:09:17.976Z,2.40
2023-03-23T17:11:47.583Z,2.30
2023-03-23T17:14:16.387Z,2.63
2023-03-23T17:16:44.865Z,1.90
2023-03-23T17:19:14.157Z,2.53
2023-03-23T17:21:42.842Z,2.10
2023-03-23T17:24:11.350Z,2.80
2023-03-23T17:26:39.520Z,2.60
2023-03-23T17:29:09.203Z,2.70
2023-03-23T17:31:37.921Z,2.80
2023-03-23T17:34:06.184Z,3.10
2023-03-23T17:36:34.370Z,2.67
2023-03-23T17:39:02.966Z,2.70
2023-03-23T17:41:31.148Z,2.90
2023-03-23T17:43:59.520Z,3.15
2023-03-23T17:46:29.650Z,3.00
2023-03-23T17:48:57.757Z,3.20
2023-03-23T17:51:26.018Z,3.15
2023-03-23T17:53:54.296Z,3.25
2023-03-23T17:56:22.541Z,3.00
2023-03-23T17:58:50.808Z,3.38
2023-03-23T18:01:19.448Z,3.00
2023-03-23T18:03:49.049Z,3.45
2023-03-23T18:06:17.286Z,3.25
2023-03-23T18:08:45.705Z,2.90
2023-03-23T18:11:13.837Z,3.45
2023-03-23T18:13:42.088Z,3.42
2023-03-23T18:16:11.210Z,3.20
2023-03-23T18:18:39.521Z,3.47
2023-03-23T18:21:11.417Z,3.55
2023-03-23T18:23:49.386Z,3.65
2023-03-23T18:26:25.063Z,3.85
2023-03-23T18:28:53.553Z,4.28
2023-03-23T18:31:22.110Z,3.75
2023-03-23T18:33:51.874Z,3.38
2023-03-23T18:36:26.008Z,3.53
2023-03-23T18:38:57.532Z,3.42
2023-03-23T18:41:26.760Z,2.92
2023-03-23T18:43:56.347Z,3.55
2023-03-23T18:46:26.010Z,3.28
2023-03-23T18:48:54.513Z,2.90
2023-03-23T18:51:26.178Z,3.40
2023-03-23T18:53:54.525Z,2.88
2023-03-23T18:56:22.898Z,2.95
2023-03-23T18:58:53.184Z,3.58
2023-03-23T19:01:21.717Z,3.00
2023-03-23T19:03:50.419Z,3.55
2023-03-23T19:06:20.475Z,3.30
2023-03-23T19:08:52.027Z,3.22
2023-03-23T19:11:21.965Z,3.20
2023-03-23T19:14:00.362Z,3.67
2023-03-23T19:16:29.521Z,3.35
2023-03-23T19:18:57.725Z,3.63
2023-03-23T19:21:29.906Z,3.40
2023-03-23T19:24:02.131Z,3.67
2023-03-23T19:26:34.873Z,4.00
2023-03-23T19:31:39.103Z,3.88
2023-03-23T19:34:08.882Z,3.90
2023-03-23T19:36:38.030Z,4.15
2023-03-23T19:39:08.942Z,4.07
2023-03-23T19:41:37.678Z,4.80
2023-03-23T19:44:06.904Z,5.18
2023-03-23T19:46:35.896Z,5.90
2023-03-23T19:49:05.048Z,7.13
2023-03-23T19:51:33.225Z,7.28
2023-03-23T19:54:01.686Z,6.55
2023-03-23T19:56:32.696Z,5.65
2023-03-23T19:59:01.094Z,5.25
2023-03-23T20:01:29.547Z,3.70
2023-03-23T20:04:00.119Z,4.00
2023-03-23T20:06:29.609Z,3.22
2023-03-23T20:09:00.005Z,3.83
2023-03-23T20:11:30.954Z,3.25
2023-03-23T20:14:00.758Z,3.67
2023-03-23T20:16:29.285Z,3.20
2023-03-23T20:19:00.197Z,3.55
2023-03-23T20:21:29.585Z,3.65
2023-03-23T20:23:59.489Z,3.35
2023-03-23T20:26:32.254Z,3.25
2023-03-23T20:29:00.935Z,3.10
2023-03-23T20:31:30.876Z,3.10
2023-03-23T20:34:02.761Z,3.47
2023-03-23T20:36:35.123Z,3.25
2023-03-23T20:39:05.692Z,4.00
2023-03-23T20:41:36.894Z,3.65
2023-03-23T20:44:06.040Z,3.55
2023-03-23T20:46:34.353Z,3.33
2023-03-23T20:49:03.484Z,3.35
2023-03-23T20:51:32.943Z,3.60
2023-03-23T20:54:02.162Z,3.72
2023-03-23T20:56:30.663Z,3.80
2023-03-23T20:59:00.584Z,3.20
2023-03-23T21:01:29.021Z,3.30
2023-03-23T21:04:00.662Z,2.95
2023-03-23T21:06:29.234Z,3.65
2023-03-23T21:08:58.151Z,2.42
2023-03-23T21:11:28.188Z,3.03
2023-03-23T21:13:57.063Z,2.97
2023-03-23T21:16:26.742Z,2.92
2023-03-23T21:18:55.540Z,2.25
2023-03-23T21:21:24.384Z,2.42
2023-03-23T21:23:53.290Z,2.20
2023-03-23T21:26:24.096Z,1.85
2023-03-23T21:28:54.230Z,1.90
2023-03-23T21:31:25.580Z,1.95
2023-03-23T21:33:55.129Z,1.80
2023-03-23T21:36:24.797Z,1.70
2023-03-23T21:38:53.222Z,1.67
2023-03-23T21:41:21.664Z,1.55
2023-03-23T21:43:50.285Z,1.13
2023-03-23T21:46:19.363Z,1.30
2023-03-23T21:48:51.416Z,0.82
2023-03-23T21:51:25.079Z,0.73
2023-03-23T21:53:55.301Z,1.33
2023-03-23T21:56:25.588Z,1.05
2023-03-23T21:58:53.858Z,1.50
2023-03-23T22:01:22.389Z,1.13
2023-03-23T22:03:51.575Z,1.05
2023-03-23T22:06:26.272Z,1.33
2023-03-23T22:08:55.329Z,1.65
2023-03-23T22:11:25.527Z,0.80
2023-03-23T22:13:54.621Z,1.38
2023-03-23T22:16:23.730Z,1.40
2023-03-23T22:18:54.080Z,0.95
2023-03-23T22:21:26.170Z,1.30
2023-03-23T22:23:55.939Z,1.20
2023-03-23T22:26:24.600Z,1.20
2023-03-23T22:28:52.948Z,1.30
2023-03-23T22:31:23.668Z,1.40
2023-03-23T22:33:55.221Z,1.52
2023-03-23T22:36:26.615Z,1.58
2023-03-23T22:38:56.497Z,2.15
2023-03-23T22:41:28.287Z,1.58
2023-03-23T22:43:56.931Z,1.55
2023-03-23T22:46:25.766Z,1.90
2023-03-23T22:48:54.304Z,1.67
2023-03-23T22:51:24.745Z,1.40
2023-03-23T22:53:52.978Z,1.85
2023-03-23T22:56:21.754Z,1.35
2023-03-23T22:58:50.523Z,1.20
2023-03-23T23:01:21.206Z,1.45
2023-03-23T23:03:50.229Z,1.70
2023-03-23T23:06:19.310Z,1.70
2023-03-23T23:08:49.859Z,1.90
2023-03-23T23:11:19.621Z,1.30
2023-03-23T23:13:48.395Z,1.77
2023-03-23T23:16:18.201Z,1.40
2023-03-23T23:18:47.816Z,1.65
2023-03-23T23:21:22.037Z,1.73
2023-03-23T23:23:52.166Z,1.92
2023-03-23T23:26:20.940Z,1.10
2023-03-23T23:28:50.000Z,1.55
2023-03-23T23:31:26.559Z,1.70
2023-03-23T23:33:55.952Z,1.92
2023-03-23T23:36:27.741Z,1.92
2023-03-23T23:38:57.705Z,2.25
2023-03-23T23:41:26.077Z,1.88
2023-03-23T23:43:54.263Z,2.45
2023-03-23T23:46:22.877Z,2.15
2023-03-23T23:48:51.274Z,1.38
2023-03-23T23:51:19.954Z,2.03
2023-03-23T23:53:53.445Z,1.77
2023-03-23T23:56:23.774Z,2.03
2023-03-23T23:58:52.653Z,2.42
